createdAt,value
2018-11-21T00:00:25.224Z,4.80
2018-11-21T00:03:29.061Z,4.80
2018-11-21T00:06:33.005Z,4.90
2018-11-21T00:09:37.044Z,4.90
2018-11-21T00:12:42.658Z,4.90
2018-11-21T00:15:46.591Z,4.80
2018-11-21T00:18:50.455Z,4.80
2018-11-21T00:21:54.310Z,4.80
2018-11-21T00:24:58.464Z,4.80
2018-11-21T00:28:02.409Z,4.90
2018-11-21T00:31:06.882Z,4.90
2018-11-21T00:34:10.745Z,4.90
2018-11-21T00:37:14.605Z,4.90
2018-11-21T00:40:18.566Z,4.90
2018-11-21T00:43:22.631Z,5.00
2018-11-21T00:46:26.457Z,5.00
2018-11-21T00:49:30.216Z,5.10
2018-11-21T00:52:34.034Z,5.10
2018-11-21T00:55:37.856Z,5.00
2018-11-21T00:58:41.641Z,5.00
2018-11-21T01:01:45.448Z,5.00
2018-11-21T01:04:49.396Z,5.00
2018-11-21T01:07:53.273Z,5.10
2018-11-21T01:10:57.224Z,5.10
2018-11-21T01:14:00.988Z,5.20
2018-11-21T01:17:05.033Z,5.20
2018-11-21T01:20:09.149Z,5.20
2018-11-21T01:23:13.125Z,5.20
2018-11-21T01:26:16.967Z,5.20
2018-11-21T01:29:20.997Z,5.30
2018-11-21T01:32:24.895Z,5.40
2018-11-21T01:35:28.821Z,5.40
2018-11-21T01:38:32.587Z,5.50
2018-11-21T01:41:36.390Z,5.60
2018-11-21T01:44:40.232Z,5.60
2018-11-21T01:47:44.214Z,5.60
2018-11-21T01:50:47.928Z,5.60
2018-11-21T01:53:51.708Z,5.60
2018-11-21T01:56:55.455Z,5.50
2018-11-21T01:59:59.440Z,5.60
2018-11-21T02:03:03.368Z,5.50
2018-11-21T02:06:07.436Z,5.60
2018-11-21T02:09:12.544Z,5.60
2018-11-21T02:12:16.436Z,5.50
2018-11-21T02:15:20.283Z,5.50
2018-11-21T02:18:24.306Z,5.50
2018-11-21T02:21:28.092Z,5.50
2018-11-21T02:24:31.887Z,5.60
2018-11-21T02:27:35.670Z,5.60
2018-11-21T02:30:39.787Z,5.60
2018-11-21T02:33:43.708Z,5.60
2018-11-21T02:36:47.579Z,5.70
2018-11-21T02:39:51.528Z,5.80
2018-11-21T02:42:55.474Z,5.70
2018-11-21T02:46:00.521Z,5.70
2018-11-21T02:49:04.666Z,5.70
2018-11-21T02:52:08.653Z,5.80
2018-11-21T02:55:12.610Z,5.80
2018-11-21T02:58:16.519Z,5.80
2018-11-21T03:01:20.443Z,5.70
2018-11-21T03:04:25.417Z,5.80
2018-11-21T03:07:29.407Z,5.70
2018-11-21T03:10:33.308Z,5.60
2018-11-21T03:13:37.330Z,5.60
2018-11-21T03:16:41.081Z,5.50
2018-11-21T03:19:44.955Z,5.40
2018-11-21T03:22:49.786Z,5.30
2018-11-21T03:25:53.700Z,5.30
2018-11-21T03:28:57.602Z,5.40
2018-11-21T03:32:01.509Z,5.30
2018-11-21T03:35:05.388Z,5.30
2018-11-21T03:38:09.310Z,5.20
2018-11-21T03:41:13.232Z,5.20
2018-11-21T03:44:17.163Z,5.20
2018-11-21T03:47:21.114Z,5.20
2018-11-21T03:50:25.022Z,5.20
2018-11-21T03:53:28.908Z,5.10
2018-11-21T03:56:32.767Z,5.10
2018-11-21T03:59:36.612Z,5.10
2018-11-21T04:02:40.849Z,5.10
2018-11-21T04:05:44.838Z,5.10
2018-11-21T04:08:48.756Z,5.20
2018-11-21T04:11:52.778Z,5.20
2018-11-21T04:14:56.680Z,5.30
2018-11-21T04:18:00.608Z,5.30
2018-11-21T04:21:04.613Z,5.30
2018-11-21T04:24:08.526Z,5.30
2018-11-21T04:27:12.486Z,5.30
2018-11-21T04:30:16.335Z,5.30
2018-11-21T04:33:20.552Z,5.20
2018-11-21T04:36:24.484Z,5.20
2018-11-21T04:39:28.431Z,5.30
2018-11-21T04:42:32.309Z,5.30
2018-11-21T04:45:36.261Z,5.30
2018-11-21T04:48:40.130Z,5.30
2018-11-21T04:51:44.090Z,5.30
2018-11-21T04:54:47.940Z,5.40
2018-11-21T04:57:51.867Z,5.40
2018-11-21T05:00:55.767Z,5.40
2018-11-21T05:03:59.699Z,5.50
2018-11-21T05:07:03.638Z,5.50
2018-11-21T05:10:08.539Z,5.50
2018-11-21T05:13:12.438Z,5.50
2018-11-21T05:16:16.392Z,5.60
2018-11-21T05:19:20.294Z,5.60
2018-11-21T05:22:24.468Z,5.60
2018-11-21T05:25:28.435Z,5.70
2018-11-21T05:28:32.347Z,5.70
2018-11-21T05:31:36.227Z,5.70
2018-11-21T05:34:40.491Z,5.80
2018-11-21T05:37:44.369Z,5.80
2018-11-21T05:40:48.392Z,5.80
2018-11-21T05:43:52.311Z,5.80
2018-11-21T05:46:56.447Z,5.80
2018-11-21T05:50:00.356Z,5.80
2018-11-21T05:53:04.299Z,5.80
2018-11-21T05:56:08.205Z,5.80
2018-11-21T05:59:12.152Z,5.80
2018-11-21T06:02:16.644Z,5.80
2018-11-21T06:05:20.532Z,5.80
2018-11-21T06:08:24.449Z,5.90
2018-11-21T06:11:28.383Z,6.00
2018-11-21T06:14:32.258Z,5.90
2018-11-21T06:17:36.185Z,6.00
2018-11-21T06:20:40.064Z,6.00
2018-11-21T06:23:44.075Z,6.00
2018-11-21T06:27:01.537Z,5.90
2018-11-21T06:30:07.765Z,5.90
2018-11-21T06:33:11.797Z,5.90
2018-11-21T06:36:15.920Z,6.00
2018-11-21T06:39:20.544Z,6.00
2018-11-21T06:42:24.454Z,6.10
2018-11-21T06:45:29.374Z,6.10
2018-11-21T06:48:33.305Z,6.00
2018-11-21T06:51:37.257Z,6.10
2018-11-21T06:54:41.196Z,6.20
2018-11-21T06:57:45.164Z,6.20
2018-11-21T07:00:49.057Z,6.20
2018-11-21T07:03:53.021Z,6.30
2018-11-21T07:06:56.888Z,6.20
2018-11-21T07:10:00.889Z,6.30
2018-11-21T07:13:11.002Z,6.40
2018-11-21T07:16:09.942Z,6.50
2018-11-21T07:19:13.975Z,6.60
2018-11-21T07:22:17.892Z,6.70
2018-11-21T07:25:23.042Z,6.60
2018-11-21T07:28:26.929Z,6.60
2018-11-21T07:31:30.884Z,6.70
2018-11-21T07:34:35.080Z,6.70
2018-11-21T07:37:39.941Z,6.90
2018-11-21T07:40:43.848Z,6.90
2018-11-21T07:43:47.844Z,6.90
2018-11-21T07:46:51.812Z,6.90
2018-11-21T07:49:55.881Z,6.90
2018-11-21T07:52:59.778Z,6.80
2018-11-21T07:56:03.835Z,6.80
2018-11-21T07:59:07.699Z,6.80
2018-11-21T08:02:15.858Z,6.80
2018-11-21T08:05:24.023Z,6.80
2018-11-21T08:08:48.791Z,6.80
2018-11-21T08:12:20.891Z,6.90
2018-11-21T08:15:49.878Z,6.90
2018-11-21T08:19:24.699Z,6.90
2018-11-21T08:22:48.492Z,7.00
2018-11-21T08:26:26.407Z,7.00
2018-11-21T08:29:30.520Z,7.00
2018-11-21T08:32:34.554Z,7.10
2018-11-21T08:35:38.564Z,7.00
2018-11-21T08:38:42.499Z,7.00
2018-11-21T08:41:46.452Z,7.00
2018-11-21T08:44:50.351Z,6.90
2018-11-21T08:47:54.243Z,6.90
2018-11-21T08:50:58.217Z,6.90
2018-11-21T08:54:02.209Z,6.90
2018-11-21T08:57:06.251Z,7.00
2018-11-21T09:00:11.977Z,7.00
2018-11-21T09:03:15.712Z,7.00
2018-11-21T09:06:19.745Z,7.10
2018-11-21T09:09:23.752Z,7.10
2018-11-21T09:12:27.688Z,7.10
2018-11-21T09:15:31.661Z,7.20
2018-11-21T09:18:35.552Z,7.30
2018-11-21T09:21:39.469Z,7.40
2018-11-21T09:24:43.422Z,7.50
2018-11-21T09:27:47.373Z,7.60
2018-11-21T09:30:51.339Z,7.70
2018-11-21T09:33:55.304Z,7.80
2018-11-21T09:36:59.211Z,7.90
2018-11-21T09:40:04.470Z,7.90
2018-11-21T09:43:07.281Z,8.00
2018-11-21T09:46:11.170Z,8.00
2018-11-21T09:49:15.089Z,8.10
2018-11-21T09:52:19.002Z,8.20
2018-11-21T09:55:22.900Z,8.20
2018-11-21T09:58:26.788Z,8.20
2018-11-21T10:02:07.110Z,8.30
2018-11-21T10:05:10.987Z,8.40
2018-11-21T10:08:54.089Z,8.30
2018-11-21T10:11:58.145Z,8.20
2018-11-21T10:15:02.066Z,8.20
2018-11-21T10:18:06.351Z,8.20
2018-11-21T10:21:12.145Z,8.30
2018-11-21T10:24:16.114Z,8.50
2018-11-21T10:27:20.092Z,8.60
2018-11-21T10:30:24.030Z,8.70
2018-11-21T10:33:28.011Z,8.80
2018-11-21T10:36:31.878Z,9.10
2018-11-21T10:39:35.843Z,9.40
2018-11-21T10:42:39.681Z,9.90
2018-11-21T10:45:43.620Z,10.40
2018-11-21T10:48:47.658Z,10.60
2018-11-21T10:51:51.544Z,11.10
2018-11-21T10:54:55.449Z,11.30
2018-11-21T10:57:59.418Z,11.20
2018-11-21T11:01:21.006Z,11.20
2018-11-21T11:04:28.291Z,11.10
2018-11-21T11:07:53.800Z,11.10
2018-11-21T11:11:35.060Z,10.70
2018-11-21T11:14:56.865Z,10.50
2018-11-21T11:18:19.895Z,10.40
2018-11-21T11:21:51.956Z,10.40
2018-11-21T11:25:21.007Z,10.40
2018-11-21T11:28:56.176Z,10.30
2018-11-21T11:32:34.192Z,10.20
2018-11-21T11:35:55.984Z,10.10
2018-11-21T11:39:24.481Z,10.10
2018-11-21T11:42:43.639Z,10.10
2018-11-21T11:46:05.009Z,10.10
2018-11-21T11:49:33.964Z,10.00
2018-11-21T11:52:59.550Z,9.90
2018-11-21T11:56:25.143Z,9.70
2018-11-21T11:59:46.642Z,9.70
2018-11-21T12:03:09.601Z,9.70
2018-11-21T12:06:31.019Z,9.70
2018-11-21T12:09:59.685Z,9.70
2018-11-21T12:13:37.827Z,9.70
2018-11-21T12:17:05.823Z,9.60
2018-11-21T12:20:28.792Z,9.40
2018-11-21T12:23:50.588Z,9.20
2018-11-21T12:27:16.107Z,9.10
2018-11-21T12:30:37.815Z,9.10
2018-11-21T12:33:51.988Z,9.20
2018-11-21T12:37:30.058Z,9.10
2018-11-21T12:40:51.760Z,9.20
2018-11-21T12:44:17.547Z,9.20
2018-11-21T12:47:55.808Z,9.20
2018-11-21T12:51:17.210Z,9.10
2018-11-21T12:54:38.820Z,9.20
2018-11-21T12:58:04.600Z,9.20
2018-11-21T13:01:42.551Z,9.10
2018-11-21T13:05:04.265Z,9.20
2018-11-21T13:08:26.016Z,9.10
2018-11-21T13:12:07.041Z,9.00
2018-11-21T13:15:32.516Z,8.70
2018-11-21T13:18:54.205Z,8.30
2018-11-21T13:22:20.073Z,8.30
2018-11-21T13:25:43.055Z,8.40
2018-11-21T13:29:06.151Z,8.50
2018-11-21T13:32:32.183Z,8.60
2018-11-21T13:35:51.957Z,8.60
2018-11-21T13:39:13.742Z,8.40
2018-11-21T13:42:30.437Z,8.30
2018-11-21T13:45:45.831Z,8.00
2018-11-21T13:48:59.088Z,8.10
2018-11-21T13:52:22.111Z,8.10
2018-11-21T13:55:26.102Z,8.10
2018-11-21T13:58:30.092Z,8.10
2018-11-21T14:01:34.137Z,8.10
2018-11-21T14:04:38.170Z,8.20
2018-11-21T14:07:42.088Z,8.20
2018-11-21T14:10:46.142Z,8.20
2018-11-21T14:13:50.013Z,8.20
2018-11-21T14:16:53.839Z,8.20
2018-11-21T14:19:57.823Z,8.20
2018-11-21T14:23:01.844Z,8.20
2018-11-21T14:26:06.161Z,8.30
2018-11-21T14:29:10.219Z,8.30
2018-11-21T14:32:14.073Z,8.20
2018-11-21T14:35:18.095Z,8.10
2018-11-21T14:38:21.935Z,8.10
2018-11-21T14:41:25.934Z,8.10
2018-11-21T14:44:29.789Z,8.00
2018-11-21T14:47:33.751Z,7.90
2018-11-21T14:50:39.332Z,7.90
2018-11-21T14:53:42.983Z,7.80
2018-11-21T14:56:46.332Z,7.80
2018-11-21T14:59:50.301Z,7.70
2018-11-21T15:02:54.173Z,7.70
2018-11-21T15:05:58.113Z,7.60
2018-11-21T15:09:01.989Z,7.50
2018-11-21T15:12:06.119Z,7.40
2018-11-21T15:15:12.260Z,7.30
2018-11-21T15:18:16.455Z,7.40
2018-11-21T15:21:20.283Z,7.30
2018-11-21T15:24:24.285Z,7.40
2018-11-21T15:27:28.147Z,7.30
2018-11-21T15:30:32.195Z,7.20
2018-11-21T15:33:36.045Z,7.20
2018-11-21T15:36:40.001Z,7.20
2018-11-21T15:39:43.879Z,7.20
2018-11-21T15:42:47.906Z,7.20
2018-11-21T15:45:51.813Z,7.20
2018-11-21T15:48:55.782Z,7.20
2018-11-21T15:52:01.501Z,7.30
2018-11-21T15:55:03.998Z,7.30
2018-11-21T15:58:07.929Z,7.30
2018-11-21T16:01:12.020Z,7.30
2018-11-21T16:04:15.914Z,7.30
2018-11-21T16:07:19.825Z,7.30
2018-11-21T16:10:25.660Z,7.40
2018-11-21T16:13:29.816Z,7.40
2018-11-21T16:16:33.709Z,7.40
2018-11-21T16:19:37.674Z,7.30
2018-11-21T16:22:47.775Z,7.30
2018-11-21T16:25:51.692Z,7.30
2018-11-21T16:28:55.717Z,7.30
2018-11-21T16:31:59.618Z,7.20
2018-11-21T16:35:08.256Z,7.20
2018-11-21T16:38:07.466Z,7.20
2018-11-21T16:41:11.396Z,7.10
2018-11-21T16:44:15.332Z,7.10
2018-11-21T16:47:19.525Z,7.10
2018-11-21T16:50:23.496Z,7.10
2018-11-21T16:53:27.432Z,7.00
2018-11-21T16:56:31.399Z,7.10
2018-11-21T16:59:35.220Z,7.00
2018-11-21T17:02:39.186Z,7.00
2018-11-21T17:05:43.052Z,7.00
2018-11-21T17:08:47.035Z,6.90
2018-11-21T17:11:51.052Z,6.90
2018-11-21T17:14:54.998Z,6.90
2018-11-21T17:17:59.086Z,6.90
2018-11-21T17:21:03.072Z,6.90
2018-11-21T17:24:07.227Z,7.00
2018-11-21T17:27:11.282Z,7.00
2018-11-21T17:30:16.402Z,6.90
2018-11-21T17:33:20.210Z,6.90
2018-11-21T17:36:24.100Z,6.90
2018-11-21T17:39:28.091Z,7.00
2018-11-21T17:42:31.995Z,7.00
2018-11-21T17:45:35.935Z,7.00
2018-11-21T17:48:39.843Z,6.90
2018-11-21T17:51:43.783Z,6.90
2018-11-21T17:54:47.797Z,6.90
2018-11-21T17:57:51.815Z,6.90
2018-11-21T18:00:55.743Z,6.90
2018-11-21T18:03:59.694Z,6.80
2018-11-21T18:07:03.658Z,6.80
2018-11-21T18:10:10.394Z,6.80
2018-11-21T18:13:14.302Z,6.90
2018-11-21T18:16:18.197Z,7.00
2018-11-21T18:19:22.220Z,7.00
2018-11-21T18:22:26.266Z,7.00
2018-11-21T18:25:32.126Z,7.00
2018-11-21T18:28:36.104Z,7.10
2018-11-21T18:31:40.005Z,7.10
2018-11-21T18:34:43.817Z,7.10
2018-11-21T18:37:48.136Z,7.10
2018-11-21T18:40:52.082Z,7.00
2018-11-21T18:43:55.934Z,7.00
2018-11-21T18:47:00.240Z,7.10
2018-11-21T18:50:08.031Z,7.10
2018-11-21T18:53:09.241Z,7.10
2018-11-21T18:56:46.661Z,7.10
2018-11-21T19:00:21.235Z,7.20
2018-11-21T19:03:25.239Z,7.00
2018-11-21T19:06:29.273Z,7.10
2018-11-21T19:09:33.310Z,7.10
2018-11-21T19:12:37.371Z,7.20
2018-11-21T19:15:41.378Z,7.20
2018-11-21T19:18:45.333Z,7.30
2018-11-21T19:21:49.395Z,7.20
2018-11-21T19:24:53.306Z,7.20
2018-11-21T19:27:57.382Z,7.20
2018-11-21T19:31:01.387Z,7.20
2018-11-21T19:34:05.604Z,7.10
2018-11-21T19:37:09.607Z,7.20
2018-11-21T19:40:14.645Z,7.20
2018-11-21T19:43:18.513Z,7.10
2018-11-21T19:46:23.376Z,7.10
2018-11-21T19:49:33.169Z,7.10
2018-11-21T19:52:34.830Z,7.10
2018-11-21T19:55:41.605Z,7.10
2018-11-21T19:58:45.931Z,7.10
2018-11-21T20:01:49.915Z,7.10
2018-11-21T20:04:53.903Z,7.10
2018-11-21T20:07:57.841Z,7.00
2018-11-21T20:11:01.837Z,7.00
2018-11-21T20:14:05.977Z,7.00
2018-11-21T20:17:10.091Z,7.00
2018-11-21T20:20:15.784Z,7.00
2018-11-21T20:23:19.786Z,7.00
2018-11-21T20:26:23.721Z,6.90
2018-11-21T20:29:27.671Z,7.00
2018-11-21T20:32:31.631Z,7.00
2018-11-21T20:35:36.085Z,7.00
2018-11-21T20:38:40.066Z,7.00
2018-11-21T20:41:44.984Z,7.10
2018-11-21T20:44:49.913Z,7.10
2018-11-21T20:47:54.840Z,7.10
2018-11-21T20:50:59.158Z,7.10
2018-11-21T20:54:03.190Z,7.10
2018-11-21T20:57:07.474Z,7.10
2018-11-21T21:00:19.290Z,7.10
2018-11-21T21:03:23.361Z,7.10
2018-11-21T21:06:27.411Z,7.00
2018-11-21T21:09:31.402Z,7.10
2018-11-21T21:12:35.401Z,7.10
2018-11-21T21:15:39.350Z,7.10
2018-11-21T21:18:44.425Z,7.10
2018-11-21T21:21:51.032Z,7.10
2018-11-21T21:24:55.042Z,7.10
2018-11-21T21:27:59.109Z,7.10
2018-11-21T21:31:03.067Z,7.10
2018-11-21T21:34:07.106Z,7.20
2018-11-21T21:37:12.003Z,7.20
2018-11-21T21:40:20.332Z,7.20
2018-11-21T21:43:21.665Z,7.20
2018-11-21T21:46:25.510Z,7.10
2018-11-21T21:49:29.507Z,7.10
2018-11-21T21:52:33.760Z,7.10
2018-11-21T21:55:37.740Z,7.20
2018-11-21T21:58:41.565Z,7.10
2018-11-21T22:01:45.469Z,7.20
2018-11-21T22:04:49.364Z,7.20
2018-11-21T22:07:53.256Z,7.10
2018-11-21T22:10:57.182Z,7.20
2018-11-21T22:14:01.301Z,7.10
2018-11-21T22:17:05.201Z,7.10
2018-11-21T22:20:09.085Z,7.10
2018-11-21T22:26:17.014Z,7.10
2018-11-21T22:29:20.920Z,7.10
2018-11-21T22:32:24.892Z,7.10
2018-11-21T22:35:30.807Z,7.10
2018-11-21T22:38:34.825Z,7.10
2018-11-21T22:41:38.786Z,7.10
2018-11-21T22:44:42.760Z,7.10
2018-11-21T22:47:46.716Z,7.10
2018-11-21T22:50:50.632Z,7.00
2018-11-21T22:53:54.566Z,7.00
2018-11-21T22:56:58.530Z,7.00
2018-11-21T23:00:02.501Z,7.00
2018-11-21T23:03:06.707Z,7.00
2018-11-21T23:06:10.638Z,7.00
2018-11-21T23:09:14.576Z,7.00
2018-11-21T23:12:18.459Z,7.10
2018-11-21T23:15:22.444Z,7.10
2018-11-21T23:18:26.314Z,7.10
2018-11-21T23:21:30.270Z,7.10
2018-11-21T23:24:34.361Z,7.10
2018-11-21T23:27:38.752Z,7.10
2018-11-21T23:30:43.723Z,7.10
2018-11-21T23:33:47.638Z,7.10
2018-11-21T23:36:51.551Z,7.10
2018-11-21T23:39:55.505Z,7.10
2018-11-21T23:42:59.712Z,7.10
2018-11-21T23:46:03.725Z,7.00
2018-11-21T23:49:07.604Z,7.00
2018-11-21T23:52:11.508Z,7.00
2018-11-21T23:55:17.445Z,7.00
2018-11-21T23:58:21.486Z,7.00
